createdAt,value
2022-11-23T00:01:21.004Z,3.70
2022-11-23T00:03:51.989Z,3.70
2022-11-23T00:06:21.237Z,3.70
2022-11-23T00:08:54.336Z,3.70
2022-11-23T00:11:25.428Z,3.70
2022-11-23T00:13:53.576Z,3.70
2022-11-23T00:16:28.621Z,3.70
2022-11-23T00:19:01.120Z,3.70
2022-11-23T00:21:32.175Z,3.80
2022-11-23T00:24:02.858Z,3.70
2022-11-23T00:26:30.404Z,3.80
2022-11-23T00:28:57.800Z,3.70
2022-11-23T00:31:27.818Z,3.70
2022-11-23T00:33:56.986Z,3.70
2022-11-23T00:36:28.975Z,3.70
2022-11-23T00:38:57.684Z,3.70
2022-11-23T00:41:27.293Z,3.60
2022-11-23T00:43:54.844Z,3.60
2022-11-23T00:46:26.504Z,3.50
2022-11-23T00:48:56.827Z,3.50
2022-11-23T00:51:31.427Z,3.50
2022-11-23T00:54:02.074Z,3.40
2022-11-23T00:56:30.917Z,3.40
2022-11-23T00:58:59.970Z,3.40
2022-11-23T01:01:30.934Z,3.40
2022-11-23T01:04:01.997Z,3.50
2022-11-23T01:06:37.776Z,3.50
2022-11-23T01:09:18.975Z,3.40
2022-11-23T01:11:52.700Z,3.40
2022-11-23T01:14:26.778Z,3.40
2022-11-23T01:16:53.880Z,3.40
2022-11-23T01:19:24.171Z,3.50
2022-11-23T01:21:51.388Z,3.40
2022-11-23T01:24:23.039Z,3.50
2022-11-23T01:26:54.220Z,3.50
2022-11-23T01:29:23.091Z,3.50
2022-11-23T01:31:50.343Z,3.50
2022-11-23T01:34:18.056Z,3.50
2022-11-23T01:36:45.606Z,3.50
2022-11-23T01:39:18.510Z,3.50
2022-11-23T01:41:48.031Z,3.40
2022-11-23T01:44:39.634Z,3.40
2022-11-23T01:47:10.294Z,3.40
2022-11-23T01:49:50.586Z,3.40
2022-11-23T01:52:23.418Z,3.40
2022-11-23T01:54:57.220Z,3.40
2022-11-23T01:57:39.056Z,3.40
2022-11-23T02:00:08.301Z,3.40
2022-11-23T02:02:55.162Z,3.40
2022-11-23T02:05:28.492Z,3.40
2022-11-23T02:08:01.157Z,3.50
2022-11-23T02:10:31.770Z,3.50
2022-11-23T02:13:05.196Z,3.50
2022-11-23T02:15:36.632Z,3.50
2022-11-23T02:18:16.519Z,3.50
2022-11-23T02:20:47.462Z,3.40
2022-11-23T02:23:38.747Z,3.40
2022-11-23T02:26:18.937Z,3.50
2022-11-23T02:28:56.454Z,3.40
2022-11-23T02:31:26.514Z,3.40
2022-11-23T02:33:55.848Z,3.40
2022-11-23T02:36:42.283Z,3.40
2022-11-23T02:39:17.191Z,3.40
2022-11-23T02:41:50.827Z,3.40
2022-11-23T02:44:31.796Z,3.40
2022-11-23T02:47:01.799Z,3.40
2022-11-23T02:49:29.164Z,3.40
2022-11-23T02:51:56.809Z,3.40
2022-11-23T02:54:29.624Z,3.40
2022-11-23T02:57:00.438Z,3.40
2022-11-23T02:59:27.562Z,3.50
2022-11-23T03:01:54.960Z,3.50
2022-11-23T03:04:27.637Z,3.40
2022-11-23T03:07:00.280Z,3.40
2022-11-23T03:09:30.928Z,3.50
2022-11-23T03:12:00.833Z,3.50
2022-11-23T03:14:29.268Z,3.50
2022-11-23T03:17:01.876Z,3.50
2022-11-23T03:19:34.869Z,3.50
2022-11-23T03:22:03.222Z,3.50
2022-11-23T03:24:34.251Z,3.50
2022-11-23T03:27:08.198Z,3.50
2022-11-23T03:29:40.515Z,3.50
2022-11-23T03:32:15.648Z,3.50
2022-11-23T03:34:46.691Z,3.50
2022-11-23T03:37:15.665Z,3.50
2022-11-23T03:39:47.174Z,3.50
2022-11-23T03:42:33.485Z,3.40
2022-11-23T03:45:00.809Z,3.40
2022-11-23T03:47:30.899Z,3.40
2022-11-23T03:49:58.091Z,3.50
2022-11-23T03:52:25.575Z,3.30
2022-11-23T03:54:57.965Z,3.40
2022-11-23T03:57:28.491Z,3.30
2022-11-23T03:59:55.922Z,3.30
2022-11-23T04:02:23.677Z,3.30
2022-11-23T04:05:03.889Z,3.40
2022-11-23T04:07:50.547Z,3.40
2022-11-23T04:10:23.236Z,3.30
2022-11-23T04:13:02.931Z,3.40
2022-11-23T04:15:30.563Z,3.40
2022-11-23T04:17:59.186Z,3.40
2022-11-23T04:20:26.547Z,3.30
2022-11-23T04:22:54.575Z,3.40
2022-11-23T04:25:21.763Z,3.30
2022-11-23T04:27:51.510Z,3.40
2022-11-23T04:30:19.453Z,3.40
2022-11-23T04:32:47.315Z,3.40
2022-11-23T04:35:15.333Z,3.40
2022-11-23T04:37:46.583Z,3.30
2022-11-23T04:40:14.411Z,3.30
2022-11-23T04:43:02.354Z,3.30
2022-11-23T04:45:40.527Z,3.30
2022-11-23T04:48:13.851Z,3.20
2022-11-23T04:50:45.712Z,3.20
2022-11-23T04:53:19.078Z,3.20
2022-11-23T04:55:47.736Z,3.20
2022-11-23T04:58:18.993Z,3.30
2022-11-23T05:00:50.981Z,3.30
2022-11-23T05:03:19.061Z,3.30
2022-11-23T05:05:46.262Z,3.40
2022-11-23T05:08:16.752Z,3.40
2022-11-23T05:10:53.348Z,3.40
2022-11-23T05:13:24.282Z,3.30
2022-11-23T05:15:51.537Z,3.40
2022-11-23T05:18:24.887Z,3.30
2022-11-23T05:20:54.213Z,3.30
2022-11-23T05:23:22.428Z,3.20
2022-11-23T05:25:52.109Z,3.20
2022-11-23T05:28:39.659Z,3.20
2022-11-23T05:31:11.538Z,3.10
2022-11-23T05:33:41.389Z,3.10
2022-11-23T05:36:13.667Z,3.10
2022-11-23T05:38:42.596Z,3.10
2022-11-23T05:41:15.582Z,3.10
2022-11-23T05:43:44.837Z,3.10
2022-11-23T05:46:17.562Z,3.00
2022-11-23T05:48:45.604Z,3.00
2022-11-23T05:51:13.681Z,3.00
2022-11-23T05:53:49.475Z,3.00
2022-11-23T05:56:37.274Z,3.00
2022-11-23T05:59:15.551Z,3.00
2022-11-23T06:01:46.859Z,3.10
2022-11-23T06:04:27.191Z,3.10
2022-11-23T06:07:01.020Z,3.10
2022-11-23T06:09:34.264Z,3.20
2022-11-23T06:12:06.817Z,3.10
2022-11-23T06:14:36.739Z,3.10
2022-11-23T06:17:04.131Z,3.10
2022-11-23T06:19:38.833Z,3.10
2022-11-23T06:22:06.443Z,3.10
2022-11-23T06:24:39.682Z,3.10
2022-11-23T06:27:25.509Z,3.10
2022-11-23T06:29:53.502Z,3.20
2022-11-23T06:32:32.931Z,3.20
2022-11-23T06:35:03.752Z,3.10
2022-11-23T06:37:34.633Z,3.00
2022-11-23T06:40:02.304Z,3.00
2022-11-23T06:42:45.134Z,3.10
2022-11-23T06:45:19.080Z,3.10
2022-11-23T06:47:48.528Z,3.10
2022-11-23T06:50:16.388Z,3.00
2022-11-23T06:52:55.393Z,2.90
2022-11-23T06:55:29.277Z,3.00
2022-11-23T06:57:58.977Z,3.00
2022-11-23T07:00:27.129Z,3.00
2022-11-23T07:02:56.987Z,3.00
2022-11-23T07:05:28.034Z,3.00
2022-11-23T07:07:55.712Z,2.90
2022-11-23T07:10:29.670Z,2.90
2022-11-23T07:13:08.989Z,2.80
2022-11-23T07:15:40.370Z,2.90
2022-11-23T07:18:09.716Z,2.90
2022-11-23T07:20:41.836Z,2.80
2022-11-23T07:23:11.408Z,2.80
2022-11-23T07:25:43.113Z,2.80
2022-11-23T07:28:13.549Z,2.80
2022-11-23T07:30:44.863Z,2.80
2022-11-23T07:33:13.530Z,2.90
2022-11-23T07:35:44.915Z,2.90
2022-11-23T07:38:12.518Z,2.90
2022-11-23T07:40:40.241Z,3.00
2022-11-23T07:43:14.896Z,2.90
2022-11-23T07:45:42.548Z,3.00
2022-11-23T07:48:18.824Z,3.00
2022-11-23T07:50:51.209Z,3.00
2022-11-23T07:53:21.175Z,3.10
2022-11-23T07:55:48.935Z,3.10
2022-11-23T07:58:16.302Z,3.10
2022-11-23T08:00:46.480Z,3.00
2022-11-23T08:03:29.126Z,3.10
2022-11-23T08:05:59.463Z,3.10
2022-11-23T08:08:31.280Z,3.10
2022-11-23T08:10:58.722Z,3.20
2022-11-23T08:13:25.923Z,3.20
2022-11-23T08:15:55.942Z,3.20
2022-11-23T08:18:29.289Z,3.10
2022-11-23T08:21:02.271Z,3.10
2022-11-23T08:23:30.267Z,3.00
2022-11-23T08:26:06.564Z,3.10
2022-11-23T08:28:38.632Z,3.20
2022-11-23T08:31:09.261Z,3.30
2022-11-23T08:33:39.718Z,3.20
2022-11-23T08:36:08.701Z,3.20
2022-11-23T08:38:38.766Z,3.20
2022-11-23T08:41:07.017Z,3.20
2022-11-23T08:43:36.745Z,3.20
2022-11-23T08:46:10.968Z,3.20
2022-11-23T08:48:38.647Z,3.30
2022-11-23T08:51:06.606Z,3.40
2022-11-23T08:53:34.439Z,3.40
2022-11-23T08:56:05.146Z,3.50
2022-11-23T08:58:32.663Z,3.40
2022-11-23T09:01:07.275Z,3.50
2022-11-23T09:03:36.882Z,3.40
2022-11-23T09:06:04.449Z,3.40
2022-11-23T09:08:32.294Z,3.40
2022-11-23T09:11:05.603Z,3.40
2022-11-23T09:13:34.843Z,3.40
2022-11-23T09:16:03.253Z,3.40
2022-11-23T09:18:30.936Z,3.50
2022-11-23T09:21:05.814Z,3.50
2022-11-23T09:23:33.295Z,3.60
2022-11-23T09:26:02.196Z,3.70
2022-11-23T09:28:29.716Z,3.70
2022-11-23T09:31:00.186Z,3.80
2022-11-23T09:33:27.435Z,3.90
2022-11-23T09:36:01.582Z,4.00
2022-11-23T09:38:55.079Z,4.10
2022-11-23T09:41:58.243Z,4.10
2022-11-23T09:44:52.394Z,4.20
2022-11-23T09:47:42.782Z,4.20
2022-11-23T09:50:15.129Z,4.30
2022-11-23T09:52:47.804Z,4.30
2022-11-23T09:55:37.825Z,4.40
2022-11-23T09:58:06.919Z,4.60
2022-11-23T10:00:41.610Z,4.70
2022-11-23T10:03:15.677Z,4.80
2022-11-23T10:06:02.685Z,4.90
2022-11-23T10:08:37.229Z,5.10
2022-11-23T10:11:13.505Z,5.20
2022-11-23T10:13:48.044Z,5.30
2022-11-23T10:16:26.222Z,5.40
2022-11-23T10:19:23.856Z,5.40
2022-11-23T10:22:12.673Z,5.50
2022-11-23T10:24:45.600Z,5.60
2022-11-23T10:27:16.814Z,5.70
2022-11-23T10:29:44.963Z,5.90
2022-11-23T10:32:42.134Z,6.00
2022-11-23T10:35:18.203Z,6.10
2022-11-23T10:37:47.812Z,6.10
2022-11-23T10:40:27.710Z,6.30
2022-11-23T10:43:04.275Z,6.20
2022-11-23T10:45:34.919Z,6.20
2022-11-23T10:48:02.145Z,6.30
2022-11-23T10:50:37.398Z,6.40
2022-11-23T10:53:21.357Z,6.50
2022-11-23T10:55:55.109Z,6.50
2022-11-23T10:58:41.728Z,6.50
2022-11-23T11:01:30.423Z,6.50
2022-11-23T11:04:04.639Z,6.40
2022-11-23T11:06:36.063Z,6.30
2022-11-23T11:09:09.495Z,6.10
2022-11-23T11:11:47.332Z,6.10
2022-11-23T11:14:24.135Z,6.00
2022-11-23T11:16:58.394Z,5.80
2022-11-23T11:19:36.524Z,5.70
2022-11-23T11:22:33.728Z,5.70
2022-11-23T11:25:07.236Z,5.70
2022-11-23T11:27:34.776Z,5.70
2022-11-23T11:30:23.812Z,5.70
2022-11-23T11:32:59.921Z,5.80
2022-11-23T11:35:32.394Z,5.70
2022-11-23T11:38:16.333Z,5.80
2022-11-23T11:40:55.866Z,5.80
2022-11-23T11:43:42.073Z,5.90
2022-11-23T11:46:38.114Z,5.70
2022-11-23T11:49:20.443Z,5.70
2022-11-23T11:52:11.293Z,5.60
2022-11-23T11:55:07.955Z,5.60
2022-11-23T11:57:46.166Z,5.60
2022-11-23T12:00:20.046Z,5.50
2022-11-23T12:02:57.980Z,5.50
2022-11-23T12:05:51.041Z,5.60
2022-11-23T12:08:45.657Z,5.70
2022-11-23T12:11:15.343Z,5.70
2022-11-23T12:13:46.982Z,5.60
2022-11-23T12:16:25.534Z,5.50
2022-11-23T12:19:24.140Z,5.50
2022-11-23T12:22:02.959Z,5.40
2022-11-23T12:24:43.930Z,5.20
2022-11-23T12:27:48.040Z,5.20
2022-11-23T12:30:27.920Z,5.10
2022-11-23T12:33:36.024Z,5.20
2022-11-23T12:36:29.774Z,5.20
2022-11-23T12:39:24.377Z,5.10
2022-11-23T12:41:59.402Z,5.00
2022-11-23T12:44:49.662Z,5.00
2022-11-23T12:47:23.747Z,5.00
2022-11-23T12:49:58.514Z,5.00
2022-11-23T12:52:50.705Z,5.00
2022-11-23T12:55:32.757Z,5.00
2022-11-23T12:58:37.916Z,5.00
2022-11-23T13:01:05.683Z,5.00
2022-11-23T13:04:03.568Z,4.80
2022-11-23T13:07:12.732Z,4.70
2022-11-23T13:10:02.133Z,4.70
2022-11-23T13:12:49.305Z,4.70
2022-11-23T13:15:40.897Z,4.80
2022-11-23T13:18:37.337Z,4.70
2022-11-23T13:21:23.763Z,4.70
2022-11-23T13:23:53.687Z,4.70
2022-11-23T13:26:24.193Z,4.70
2022-11-23T13:28:53.720Z,4.60
2022-11-23T13:31:30.462Z,4.50
2022-11-23T13:34:51.225Z,4.40
2022-11-23T13:37:24.192Z,4.40
2022-11-23T13:40:03.601Z,4.40
2022-11-23T13:42:33.666Z,4.40
2022-11-23T13:45:30.379Z,4.20
2022-11-23T13:48:09.482Z,4.20
2022-11-23T13:50:49.196Z,4.30
2022-11-23T13:53:24.025Z,4.30
2022-11-23T13:55:54.097Z,4.30
2022-11-23T13:58:22.679Z,4.30
2022-11-23T14:00:59.597Z,4.20
2022-11-23T14:03:55.972Z,4.20
2022-11-23T14:06:38.645Z,4.20
2022-11-23T14:09:29.529Z,4.00
2022-11-23T14:12:04.275Z,4.00
2022-11-23T14:14:43.364Z,3.90
2022-11-23T14:17:29.126Z,3.80
2022-11-23T14:20:35.060Z,3.80
2022-11-23T14:23:32.989Z,3.80
2022-11-23T14:26:12.795Z,3.80
2022-11-23T14:29:05.243Z,3.90
2022-11-23T14:31:53.349Z,3.80
2022-11-23T14:34:45.508Z,3.80
2022-11-23T14:37:23.393Z,3.90
2022-11-23T14:40:12.941Z,4.00
2022-11-23T14:42:47.829Z,4.00
2022-11-23T14:45:18.498Z,4.00
2022-11-23T14:47:50.441Z,3.90
2022-11-23T14:50:28.507Z,3.90
2022-11-23T14:53:00.111Z,3.90
2022-11-23T14:55:29.633Z,3.80
2022-11-23T14:58:07.021Z,3.90
2022-11-23T15:00:43.854Z,3.80
2022-11-23T15:06:14.336Z,3.80
2022-11-23T15:09:09.491Z,3.80
2022-11-23T15:11:38.322Z,3.80
2022-11-23T15:14:21.423Z,3.80
2022-11-23T15:16:50.960Z,3.80
2022-11-23T15:19:29.199Z,3.90
2022-11-23T15:21:57.565Z,3.90
2022-11-23T15:24:28.764Z,3.80
2022-11-23T15:27:10.772Z,3.80
2022-11-23T15:29:39.974Z,3.80
2022-11-23T15:32:33.935Z,3.80
2022-11-23T15:35:08.385Z,3.80
2022-11-23T15:37:45.858Z,3.80
2022-11-23T15:40:20.017Z,3.90
2022-11-23T15:42:53.008Z,3.90
2022-11-23T15:45:46.226Z,4.00
2022-11-23T15:48:17.925Z,3.90
2022-11-23T15:50:56.516Z,3.80
2022-11-23T15:53:34.422Z,3.80
2022-11-23T15:56:04.814Z,3.70
2022-11-23T15:58:33.865Z,3.70
2022-11-23T16:01:17.032Z,3.70
2022-11-23T16:04:02.211Z,3.70
2022-11-23T16:06:38.539Z,3.70
2022-11-23T16:09:52.210Z,3.70
2022-11-23T16:12:33.812Z,3.60
2022-11-23T16:15:41.544Z,3.60
2022-11-23T16:18:21.763Z,3.60
2022-11-23T16:20:54.042Z,3.60
2022-11-23T16:23:44.333Z,3.60
2022-11-23T16:26:15.090Z,3.60
2022-11-23T16:29:02.012Z,3.60
2022-11-23T16:31:40.506Z,3.50
2022-11-23T16:34:19.463Z,3.50
2022-11-23T16:36:46.938Z,3.60
2022-11-23T16:39:14.409Z,3.60
2022-11-23T16:41:44.317Z,3.60
2022-11-23T16:44:13.840Z,3.60
2022-11-23T16:46:47.383Z,3.50
2022-11-23T16:49:23.446Z,3.40
2022-11-23T16:51:57.448Z,3.40
2022-11-23T16:54:27.092Z,3.50
2022-11-23T16:57:01.407Z,3.40
2022-11-23T16:59:33.663Z,3.30
2022-11-23T17:02:03.479Z,3.20
2022-11-23T17:04:31.226Z,3.10
2022-11-23T17:06:59.024Z,3.20
2022-11-23T17:09:28.702Z,3.30
2022-11-23T17:11:56.729Z,3.30
2022-11-23T17:14:29.790Z,3.30
2022-11-23T17:17:00.399Z,3.20
2022-11-23T17:19:30.333Z,3.30
2022-11-23T17:21:58.193Z,3.30
2022-11-23T17:24:25.499Z,3.40
2022-11-23T17:26:56.233Z,3.30
2022-11-23T17:29:37.719Z,3.30
2022-11-23T17:32:11.733Z,3.20
2022-11-23T17:34:39.706Z,3.20
2022-11-23T17:37:19.972Z,3.30
2022-11-23T17:39:48.938Z,3.30
2022-11-23T17:42:17.310Z,3.30
2022-11-23T17:44:49.206Z,3.30
2022-11-23T17:47:30.951Z,3.30
2022-11-23T17:49:58.442Z,3.30
2022-11-23T17:52:28.360Z,3.30
2022-11-23T17:54:56.161Z,3.30
2022-11-23T17:57:26.901Z,3.30
2022-11-23T17:59:56.607Z,3.30
2022-11-23T18:02:31.442Z,3.30
2022-11-23T18:05:02.894Z,3.20
2022-11-23T18:07:32.571Z,3.10
2022-11-23T18:09:59.778Z,3.10
2022-11-23T18:12:32.157Z,3.10
2022-11-23T18:15:07.081Z,3.00
2022-11-23T18:17:35.755Z,2.90
2022-11-23T18:20:04.405Z,2.90
2022-11-23T18:22:32.081Z,2.90
2022-11-23T18:25:04.535Z,2.80
2022-11-23T18:27:35.098Z,2.80
2022-11-23T18:30:02.601Z,2.90
2022-11-23T18:32:30.138Z,2.90
2022-11-23T18:34:57.401Z,2.80
2022-11-23T18:37:29.397Z,2.90
2022-11-23T18:39:58.665Z,2.90
2022-11-23T18:42:30.919Z,2.90
2022-11-23T18:44:58.213Z,3.00
2022-11-23T18:47:28.336Z,3.00
2022-11-23T18:50:00.735Z,2.90
2022-11-23T18:52:35.840Z,3.00
2022-11-23T18:55:03.036Z,2.90
2022-11-23T18:57:30.785Z,2.90
2022-11-23T19:00:01.127Z,2.90
2022-11-23T19:02:29.342Z,3.00
2022-11-23T19:04:57.619Z,3.00
2022-11-23T19:07:27.600Z,3.10
2022-11-23T19:09:57.212Z,3.10
2022-11-23T19:12:25.535Z,3.10
2022-11-23T19:14:52.738Z,3.10
2022-11-23T19:17:23.116Z,3.10
2022-11-23T19:19:55.195Z,3.10
2022-11-23T19:22:24.797Z,3.10
2022-11-23T19:24:52.145Z,3.10
2022-11-23T19:27:29.124Z,3.10
2022-11-23T19:29:59.814Z,3.10
2022-11-23T19:32:30.814Z,3.10
2022-11-23T19:34:58.202Z,3.10
2022-11-23T19:37:28.277Z,3.10
2022-11-23T19:39:57.732Z,3.10
2022-11-23T19:42:28.093Z,3.00
2022-11-23T19:44:58.866Z,3.10
2022-11-23T19:47:31.485Z,3.10
2022-11-23T19:50:01.607Z,3.10
2022-11-23T19:53:03.706Z,3.20
2022-11-23T19:55:24.066Z,3.30
2022-11-23T19:57:54.515Z,3.30
2022-11-23T20:00:21.736Z,3.30
2022-11-23T20:02:51.954Z,3.30
2022-11-23T20:05:24.776Z,3.30
2022-11-23T20:07:52.645Z,3.20
2022-11-23T20:10:19.931Z,3.20
2022-11-23T20:12:47.346Z,3.20
2022-11-23T20:15:17.159Z,3.30
2022-11-23T20:17:47.135Z,3.20
2022-11-23T20:20:15.130Z,3.20
2022-11-23T20:22:45.731Z,3.20
2022-11-23T20:25:13.335Z,3.20
2022-11-23T20:27:47.045Z,3.20
2022-11-23T20:30:19.978Z,3.20
2022-11-23T20:32:51.965Z,3.10
2022-11-23T20:35:24.718Z,3.10
2022-11-23T20:37:57.304Z,3.10
2022-11-23T20:40:30.277Z,3.10
2022-11-23T20:43:00.713Z,3.10
2022-11-23T20:45:30.696Z,3.20
2022-11-23T20:48:01.164Z,3.20
2022-11-23T20:50:33.724Z,3.20
2022-11-23T20:53:06.182Z,3.20
2022-11-23T20:55:33.563Z,3.20
2022-11-23T20:58:06.027Z,3.20
2022-11-23T21:00:33.523Z,3.20
2022-11-23T21:03:01.250Z,3.20
2022-11-23T21:05:30.630Z,3.20
2022-11-23T21:08:01.387Z,3.20
2022-11-23T21:10:47.288Z,3.20
2022-11-23T21:13:48.490Z,3.30
2022-11-23T21:16:18.564Z,3.30
2022-11-23T21:18:48.588Z,3.20
2022-11-23T21:21:18.170Z,3.10
2022-11-23T21:23:49.513Z,3.10
2022-11-23T21:26:21.494Z,3.10
2022-11-23T21:28:49.138Z,3.00
2022-11-23T21:31:16.368Z,3.00
2022-11-23T21:33:44.305Z,3.00
2022-11-23T21:36:14.868Z,3.00
2022-11-23T21:38:42.491Z,3.00
2022-11-23T21:41:13.864Z,2.90
2022-11-23T21:43:52.752Z,2.90
2022-11-23T21:46:21.525Z,2.90
2022-11-23T21:49:00.793Z,2.90
2022-11-23T21:51:30.032Z,2.90
2022-11-23T21:53:59.537Z,3.00
2022-11-23T21:56:29.545Z,3.00
2022-11-23T21:58:59.636Z,3.00
2022-11-23T22:01:30.739Z,3.00
2022-11-23T22:04:10.367Z,2.90
2022-11-23T22:06:39.749Z,2.90
2022-11-23T22:09:11.652Z,3.00
2022-11-23T22:11:45.308Z,3.00
2022-11-23T22:14:18.419Z,3.10
2022-11-23T22:16:47.297Z,3.20
2022-11-23T22:19:18.399Z,3.20
2022-11-23T22:21:46.758Z,3.20
2022-11-23T22:24:18.854Z,3.00
2022-11-23T22:26:49.022Z,3.00
2022-11-23T22:29:16.618Z,3.00
2022-11-23T22:31:44.142Z,3.00
2022-11-23T22:34:16.774Z,3.00
2022-11-23T22:36:43.873Z,3.00
2022-11-23T22:39:11.697Z,3.00
2022-11-23T22:41:41.125Z,3.00
2022-11-23T22:44:11.427Z,2.90
2022-11-23T22:46:43.915Z,2.90
2022-11-23T22:49:11.393Z,2.90
2022-11-23T22:51:41.577Z,2.80
2022-11-23T22:54:09.610Z,2.70
2022-11-23T22:56:39.272Z,2.70
2022-11-23T22:59:09.742Z,2.60
2022-11-23T23:01:39.043Z,2.60
2022-11-23T23:04:13.714Z,2.60
2022-11-23T23:06:43.371Z,2.60
2022-11-23T23:09:11.356Z,2.70
2022-11-23T23:11:43.662Z,2.70
2022-11-23T23:14:11.497Z,2.70
2022-11-23T23:16:40.978Z,2.70
2022-11-23T23:19:08.424Z,2.60
2022-11-23T23:21:35.976Z,2.70
2022-11-23T23:24:06.715Z,2.70
2022-11-23T23:26:33.907Z,2.70
2022-11-23T23:29:06.230Z,2.70
2022-11-23T23:31:36.789Z,2.60
2022-11-23T23:34:07.018Z,2.60
2022-11-23T23:36:36.188Z,2.60
2022-11-23T23:39:04.842Z,2.60
2022-11-23T23:41:32.087Z,2.70
2022-11-23T23:44:02.082Z,2.70
2022-11-23T23:46:31.824Z,2.70
2022-11-23T23:49:00.747Z,2.60
2022-11-23T23:51:32.862Z,2.60
2022-11-23T23:54:00.320Z,2.60
2022-11-23T23:56:29.572Z,2.60
2022-11-23T23:59:00.257Z,2.60
